sensor_id;sensor_type;location;lat;lon;timestamp;P1;durP1;ratioP1;P2;durP2;ratioP2
28335;SDS011;15592;53.656;7.276;2023-01-10T00:01:31;1.50;;;0.77;;
28335;SDS011;15592;53.656;7.276;2023-01-10T00:03:57;2.65;;;1.00;;
28335;SDS011;15592;53.656;7.276;2023-01-10T00:06:22;1.33;;;0.70;;
28335;SDS011;15592;53.656;7.276;2023-01-10T00:08:48;3.70;;;0.70;;
28335;SDS011;15592;53.656;7.276;2023-01-10T00:11:13;1.85;;;0.60;;
28335;SDS011;15592;53.656;7.276;2023-01-10T00:13:57;1.25;;;0.70;;
28335;SDS011;15592;53.656;7.276;2023-01-10T00:16:23;3.95;;;0.98;;
28335;SDS011;15592;53.656;7.276;2023-01-10T00:18:48;5.47;;;1.15;;
28335;SDS011;15592;53.656;7.276;2023-01-10T00:21:14;6.18;;;1.27;;
28335;SDS011;15592;53.656;7.276;2023-01-10T00:23:40;8.60;;;1.77;;
28335;SDS011;15592;53.656;7.276;2023-01-10T00:26:07;10.20;;;2.17;;
28335;SDS011;15592;53.656;7.276;2023-01-10T00:28:33;15.00;;;2.10;;
28335;SDS011;15592;53.656;7.276;2023-01-10T00:30:59;10.07;;;1.83;;
28335;SDS011;15592;53.656;7.276;2023-01-10T00:33:29;11.18;;;2.15;;
28335;SDS011;15592;53.656;7.276;2023-01-10T00:35:58;7.82;;;2.13;;
28335;SDS011;15592;53.656;7.276;2023-01-10T00:38:25;9.77;;;2.10;;
28335;SDS011;15592;53.656;7.276;2023-01-10T00:40:51;10.02;;;2.00;;
28335;SDS011;15592;53.656;7.276;2023-01-10T00:43:17;10.20;;;2.10;;
28335;SDS011;15592;53.656;7.276;2023-01-10T00:46:01;10.13;;;2.15;;
28335;SDS011;15592;53.656;7.276;2023-01-10T00:48:27;7.95;;;2.10;;
28335;SDS011;15592;53.656;7.276;2023-01-10T00:50:53;8.07;;;2.00;;
28335;SDS011;15592;53.656;7.276;2023-01-10T00:53:19;9.63;;;1.83;;
28335;SDS011;15592;53.656;7.276;2023-01-10T00:55:45;11.70;;;2.00;;
28335;SDS011;15592;53.656;7.276;2023-01-10T00:58:14;14.02;;;2.38;;
28335;SDS011;15592;53.656;7.276;2023-01-10T01:00:41;10.40;;;2.55;;
28335;SDS011;15592;53.656;7.276;2023-01-10T01:03:10;9.85;;;2.42;;
28335;SDS011;15592;53.656;7.276;2023-01-10T01:05:40;10.75;;;2.30;;
28335;SDS011;15592;53.656;7.276;2023-01-10T01:08:07;11.05;;;2.05;;
28335;SDS011;15592;53.656;7.276;2023-01-10T01:10:33;15.32;;;2.25;;
28335;SDS011;15592;53.656;7.276;2023-01-10T01:12:59;17.25;;;3.15;;
28335;SDS011;15592;53.656;7.276;2023-01-10T01:15:48;16.80;;;3.47;;
28335;SDS011;15592;53.656;7.276;2023-01-10T01:18:15;18.40;;;3.33;;
28335;SDS011;15592;53.656;7.276;2023-01-10T01:20:42;13.95;;;2.40;;
28335;SDS011;15592;53.656;7.276;2023-01-10T01:23:09;20.65;;;3.20;;
28335;SDS011;15592;53.656;7.276;2023-01-10T01:25:35;13.13;;;2.38;;
28335;SDS011;15592;53.656;7.276;2023-01-10T01:28:01;13.60;;;2.80;;
28335;SDS011;15592;53.656;7.276;2023-01-10T01:30:27;13.88;;;2.70;;
28335;SDS011;15592;53.656;7.276;2023-01-10T01:32:53;14.15;;;2.70;;
28335;SDS011;15592;53.656;7.276;2023-01-10T01:35:18;17.38;;;3.55;;
28335;SDS011;15592;53.656;7.276;2023-01-10T01:37:44;21.95;;;3.65;;
28335;SDS011;15592;53.656;7.276;2023-01-10T01:40:12;19.85;;;3.15;;
28335;SDS011;15592;53.656;7.276;2023-01-10T01:42:39;15.95;;;3.78;;
28335;SDS011;15592;53.656;7.276;2023-01-10T01:45:19;21.52;;;3.20;;
28335;SDS011;15592;53.656;7.276;2023-01-10T01:47:59;16.05;;;3.15;;
28335;SDS011;15592;53.656;7.276;2023-01-10T01:53:29;28.85;;;3.92;;
28335;SDS011;15592;53.656;7.276;2023-01-10T01:56:14;19.98;;;3.78;;
28335;SDS011;15592;53.656;7.276;2023-01-10T01:59:11;21.65;;;2.95;;
28335;SDS011;15592;53.656;7.276;2023-01-10T02:01:41;13.52;;;2.80;;
28335;SDS011;15592;53.656;7.276;2023-01-10T02:04:11;17.00;;;3.00;;
28335;SDS011;15592;53.656;7.276;2023-01-10T02:06:41;19.38;;;3.15;;
28335;SDS011;15592;53.656;7.276;2023-01-10T02:09:16;15.75;;;2.90;;
28335;SDS011;15592;53.656;7.276;2023-01-10T02:11:54;17.15;;;3.10;;
28335;SDS011;15592;53.656;7.276;2023-01-10T02:14:20;19.83;;;3.25;;
28335;SDS011;15592;53.656;7.276;2023-01-10T02:16:48;15.82;;;3.33;;
28335;SDS011;15592;53.656;7.276;2023-01-10T02:19:22;27.92;;;4.18;;
28335;SDS011;15592;53.656;7.276;2023-01-10T02:37:06;19.42;;;3.72;;
28335;SDS011;15592;53.656;7.276;2023-01-10T02:39:27;25.95;;;4.28;;
28335;SDS011;15592;53.656;7.276;2023-01-10T02:47:09;25.67;;;4.30;;
28335;SDS011;15592;53.656;7.276;2023-01-10T02:49:43;29.13;;;4.88;;
28335;SDS011;15592;53.656;7.276;2023-01-10T02:52:10;23.08;;;4.10;;
28335;SDS011;15592;53.656;7.276;2023-01-10T02:54:41;12.65;;;3.30;;
28335;SDS011;15592;53.656;7.276;2023-01-10T03:08:04;27.40;;;4.70;;
28335;SDS011;15592;53.656;7.276;2023-01-10T03:10:58;29.67;;;4.88;;
28335;SDS011;15592;53.656;7.276;2023-01-10T03:16:11;22.67;;;4.38;;
28335;SDS011;15592;53.656;7.276;2023-01-10T03:18:42;33.95;;;4.82;;
28335;SDS011;15592;53.656;7.276;2023-01-10T03:21:13;25.52;;;4.82;;
28335;SDS011;15592;53.656;7.276;2023-01-10T03:23:42;22.35;;;4.32;;
28335;SDS011;15592;53.656;7.276;2023-01-10T03:26:09;18.10;;;4.43;;
28335;SDS011;15592;53.656;7.276;2023-01-10T03:28:44;31.83;;;4.72;;
28335;SDS011;15592;53.656;7.276;2023-01-10T03:31:29;34.63;;;3.97;;
28335;SDS011;15592;53.656;7.276;2023-01-10T03:34:01;31.67;;;5.30;;
28335;SDS011;15592;53.656;7.276;2023-01-10T03:36:31;21.67;;;4.07;;
28335;SDS011;15592;53.656;7.276;2023-01-10T03:42:40;19.17;;;3.70;;
28335;SDS011;15592;53.656;7.276;2023-01-10T03:50:10;14.70;;;3.35;;
28335;SDS011;15592;53.656;7.276;2023-01-10T03:52:42;21.23;;;4.38;;
28335;SDS011;15592;53.656;7.276;2023-01-10T03:55:10;24.50;;;5.00;;
28335;SDS011;15592;53.656;7.276;2023-01-10T03:57:40;33.25;;;5.07;;
28335;SDS011;15592;53.656;7.276;2023-01-10T04:00:07;26.57;;;4.50;;
28335;SDS011;15592;53.656;7.276;2023-01-10T04:02:34;17.50;;;3.95;;
28335;SDS011;15592;53.656;7.276;2023-01-10T04:04:59;14.95;;;3.22;;
28335;SDS011;15592;53.656;7.276;2023-01-10T04:07:25;26.17;;;4.30;;
28335;SDS011;15592;53.656;7.276;2023-01-10T04:09:51;19.83;;;3.47;;
28335;SDS011;15592;53.656;7.276;2023-01-10T04:12:17;16.20;;;3.90;;
28335;SDS011;15592;53.656;7.276;2023-01-10T04:14:42;16.98;;;3.55;;
28335;SDS011;15592;53.656;7.276;2023-01-10T04:17:12;17.90;;;3.60;;
28335;SDS011;15592;53.656;7.276;2023-01-10T04:19:39;19.20;;;4.47;;
28335;SDS011;15592;53.656;7.276;2023-01-10T04:22:05;20.27;;;3.88;;
28335;SDS011;15592;53.656;7.276;2023-01-10T04:24:31;22.52;;;3.58;;
28335;SDS011;15592;53.656;7.276;2023-01-10T04:26:57;17.50;;;3.53;;
28335;SDS011;15592;53.656;7.276;2023-01-10T04:29:22;15.20;;;3.58;;
28335;SDS011;15592;53.656;7.276;2023-01-10T04:31:48;17.38;;;3.40;;
28335;SDS011;15592;53.656;7.276;2023-01-10T04:34:14;13.18;;;2.70;;
28335;SDS011;15592;53.656;7.276;2023-01-10T04:36:39;10.02;;;3.00;;
28335;SDS011;15592;53.656;7.276;2023-01-10T04:39:05;21.27;;;3.78;;
28335;SDS011;15592;53.656;7.276;2023-01-10T04:41:31;16.20;;;3.28;;
28335;SDS011;15592;53.656;7.276;2023-01-10T04:43:57;15.43;;;3.05;;
28335;SDS011;15592;53.656;7.276;2023-01-10T04:46:23;17.00;;;3.58;;
28335;SDS011;15592;53.656;7.276;2023-01-10T04:48:49;24.90;;;4.03;;
28335;SDS011;15592;53.656;7.276;2023-01-10T04:51:14;13.38;;;3.72;;
28335;SDS011;15592;53.656;7.276;2023-01-10T04:53:40;22.15;;;4.72;;
28335;SDS011;15592;53.656;7.276;2023-01-10T04:56:07;22.27;;;4.20;;
28335;SDS011;15592;53.656;7.276;2023-01-10T04:58:39;23.10;;;3.85;;
28335;SDS011;15592;53.656;7.276;2023-01-10T05:01:06;21.92;;;3.72;;
28335;SDS011;15592;53.656;7.276;2023-01-10T05:03:36;17.20;;;3.33;;
28335;SDS011;15592;53.656;7.276;2023-01-10T05:06:02;20.67;;;4.30;;
28335;SDS011;15592;53.656;7.276;2023-01-10T05:08:28;21.85;;;4.55;;
28335;SDS011;15592;53.656;7.276;2023-01-10T05:10:54;20.33;;;3.90;;
28335;SDS011;15592;53.656;7.276;2023-01-10T05:13:20;20.52;;;3.75;;
28335;SDS011;15592;53.656;7.276;2023-01-10T05:15:45;19.95;;;4.10;;
28335;SDS011;15592;53.656;7.276;2023-01-10T05:18:11;19.90;;;4.13;;
28335;SDS011;15592;53.656;7.276;2023-01-10T05:20:36;20.88;;;4.43;;
28335;SDS011;15592;53.656;7.276;2023-01-10T05:23:02;19.98;;;3.85;;
28335;SDS011;15592;53.656;7.276;2023-01-10T05:25:28;30.90;;;4.47;;
28335;SDS011;15592;53.656;7.276;2023-01-10T05:27:53;23.58;;;4.60;;
28335;SDS011;15592;53.656;7.276;2023-01-10T05:30:19;22.60;;;4.40;;
28335;SDS011;15592;53.656;7.276;2023-01-10T05:32:45;19.50;;;4.07;;
28335;SDS011;15592;53.656;7.276;2023-01-10T05:35:11;14.93;;;4.13;;
28335;SDS011;15592;53.656;7.276;2023-01-10T05:37:36;17.58;;;3.97;;
28335;SDS011;15592;53.656;7.276;2023-01-10T05:40:03;21.42;;;4.00;;
28335;SDS011;15592;53.656;7.276;2023-01-10T05:42:29;18.75;;;4.25;;
28335;SDS011;15592;53.656;7.276;2023-01-10T05:44:54;20.88;;;3.53;;
28335;SDS011;15592;53.656;7.276;2023-01-10T05:47:21;20.85;;;3.30;;
28335;SDS011;15592;53.656;7.276;2023-01-10T05:49:46;15.60;;;3.55;;
28335;SDS011;15592;53.656;7.276;2023-01-10T05:52:12;16.75;;;4.20;;
28335;SDS011;15592;53.656;7.276;2023-01-10T05:54:38;17.30;;;4.63;;
28335;SDS011;15592;53.656;7.276;2023-01-10T05:57:05;32.65;;;5.13;;
28335;SDS011;15592;53.656;7.276;2023-01-10T05:59:30;15.02;;;4.03;;
28335;SDS011;15592;53.656;7.276;2023-01-10T06:01:56;21.45;;;4.72;;
28335;SDS011;15592;53.656;7.276;2023-01-10T06:04:21;24.70;;;4.65;;
28335;SDS011;15592;53.656;7.276;2023-01-10T06:06:47;22.30;;;4.85;;
28335;SDS011;15592;53.656;7.276;2023-01-10T06:09:12;23.88;;;4.70;;
28335;SDS011;15592;53.656;7.276;2023-01-10T06:11:38;21.92;;;5.05;;
28335;SDS011;15592;53.656;7.276;2023-01-10T06:14:04;27.48;;;5.47;;
28335;SDS011;15592;53.656;7.276;2023-01-10T06:16:31;26.55;;;6.22;;
28335;SDS011;15592;53.656;7.276;2023-01-10T06:18:57;33.60;;;5.63;;
28335;SDS011;15592;53.656;7.276;2023-01-10T06:21:22;20.20;;;4.32;;
28335;SDS011;15592;53.656;7.276;2023-01-10T06:23:48;26.65;;;6.28;;
28335;SDS011;15592;53.656;7.276;2023-01-10T06:26:13;28.52;;;5.90;;
28335;SDS011;15592;53.656;7.276;2023-01-10T06:28:39;24.88;;;6.18;;
28335;SDS011;15592;53.656;7.276;2023-01-10T06:31:05;20.35;;;5.20;;
28335;SDS011;15592;53.656;7.276;2023-01-10T06:33:31;28.17;;;6.00;;
28335;SDS011;15592;53.656;7.276;2023-01-10T06:35:57;27.70;;;6.13;;
28335;SDS011;15592;53.656;7.276;2023-01-10T06:38:23;26.95;;;5.85;;
28335;SDS011;15592;53.656;7.276;2023-01-10T06:40:48;30.40;;;6.20;;
28335;SDS011;15592;53.656;7.276;2023-01-10T06:43:14;25.98;;;7.40;;
28335;SDS011;15592;53.656;7.276;2023-01-10T06:45:39;28.58;;;6.50;;
28335;SDS011;15592;53.656;7.276;2023-01-10T06:48:05;26.23;;;5.65;;
28335;SDS011;15592;53.656;7.276;2023-01-10T06:50:31;28.48;;;6.22;;
28335;SDS011;15592;53.656;7.276;2023-01-10T06:52:57;32.22;;;5.80;;
28335;SDS011;15592;53.656;7.276;2023-01-10T06:55:24;20.35;;;5.22;;
28335;SDS011;15592;53.656;7.276;2023-01-10T06:57:54;21.95;;;5.18;;
28335;SDS011;15592;53.656;7.276;2023-01-10T07:00:25;23.52;;;5.15;;
28335;SDS011;15592;53.656;7.276;2023-01-10T07:02:51;23.15;;;5.78;;
28335;SDS011;15592;53.656;7.276;2023-01-10T07:05:18;27.73;;;5.90;;
28335;SDS011;15592;53.656;7.276;2023-01-10T07:07:45;21.27;;;4.78;;
28335;SDS011;15592;53.656;7.276;2023-01-10T07:10:10;26.95;;;5.22;;
28335;SDS011;15592;53.656;7.276;2023-01-10T07:12:36;24.33;;;5.40;;
28335;SDS011;15592;53.656;7.276;2023-01-10T07:15:02;23.77;;;6.10;;
28335;SDS011;15592;53.656;7.276;2023-01-10T07:17:28;20.20;;;4.80;;
28335;SDS011;15592;53.656;7.276;2023-01-10T07:19:54;25.92;;;5.15;;
28335;SDS011;15592;53.656;7.276;2023-01-10T07:22:20;24.17;;;4.90;;
28335;SDS011;15592;53.656;7.276;2023-01-10T07:24:45;23.83;;;4.93;;
28335;SDS011;15592;53.656;7.276;2023-01-10T07:27:11;21.23;;;6.07;;
28335;SDS011;15592;53.656;7.276;2023-01-10T07:29:37;21.08;;;4.50;;
28335;SDS011;15592;53.656;7.276;2023-01-10T07:32:02;25.65;;;4.93;;
28335;SDS011;15592;53.656;7.276;2023-01-10T07:34:28;25.83;;;5.28;;
28335;SDS011;15592;53.656;7.276;2023-01-10T07:36:54;28.58;;;4.88;;
28335;SDS011;15592;53.656;7.276;2023-01-10T07:39:19;24.52;;;4.88;;
28335;SDS011;15592;53.656;7.276;2023-01-10T07:41:48;24.65;;;5.63;;
28335;SDS011;15592;53.656;7.276;2023-01-10T07:44:14;27.58;;;6.18;;
28335;SDS011;15592;53.656;7.276;2023-01-10T07:46:40;30.73;;;6.90;;
28335;SDS011;15592;53.656;7.276;2023-01-10T07:49:06;22.92;;;5.50;;
28335;SDS011;15592;53.656;7.276;2023-01-10T07:51:31;26.05;;;5.18;;
28335;SDS011;15592;53.656;7.276;2023-01-10T07:53:57;25.42;;;5.65;;
28335;SDS011;15592;53.656;7.276;2023-01-10T07:56:22;23.67;;;5.22;;
28335;SDS011;15592;53.656;7.276;2023-01-10T07:58:48;18.70;;;5.03;;
28335;SDS011;15592;53.656;7.276;2023-01-10T08:01:14;20.25;;;4.88;;
28335;SDS011;15592;53.656;7.276;2023-01-10T08:03:39;18.85;;;4.93;;
28335;SDS011;15592;53.656;7.276;2023-01-10T08:06:06;21.23;;;5.15;;
28335;SDS011;15592;53.656;7.276;2023-01-10T08:08:35;21.00;;;5.47;;
28335;SDS011;15592;53.656;7.276;2023-01-10T08:11:00;19.25;;;5.05;;
28335;SDS011;15592;53.656;7.276;2023-01-10T08:13:27;20.85;;;4.43;;
28335;SDS011;15592;53.656;7.276;2023-01-10T08:15:53;28.13;;;5.47;;
28335;SDS011;15592;53.656;7.276;2023-01-10T08:18:19;18.80;;;4.10;;
28335;SDS011;15592;53.656;7.276;2023-01-10T08:20:47;18.73;;;4.63;;
28335;SDS011;15592;53.656;7.276;2023-01-10T08:23:13;23.27;;;4.85;;
28335;SDS011;15592;53.656;7.276;2023-01-10T08:25:39;25.45;;;4.40;;
28335;SDS011;15592;53.656;7.276;2023-01-10T08:28:04;23.20;;;4.60;;
28335;SDS011;15592;53.656;7.276;2023-01-10T08:30:30;31.08;;;4.72;;
28335;SDS011;15592;53.656;7.276;2023-01-10T08:32:56;25.67;;;5.00;;
28335;SDS011;15592;53.656;7.276;2023-01-10T08:35:22;25.02;;;5.10;;
28335;SDS011;15592;53.656;7.276;2023-01-10T08:37:47;27.20;;;4.68;;
28335;SDS011;15592;53.656;7.276;2023-01-10T08:40:13;17.77;;;4.68;;
28335;SDS011;15592;53.656;7.276;2023-01-10T08:42:39;17.58;;;4.60;;
28335;SDS011;15592;53.656;7.276;2023-01-10T08:45:04;22.10;;;5.18;;
28335;SDS011;15592;53.656;7.276;2023-01-10T08:47:30;25.83;;;5.18;;
28335;SDS011;15592;53.656;7.276;2023-01-10T08:49:56;20.10;;;4.35;;
28335;SDS011;15592;53.656;7.276;2023-01-10T08:52:21;21.33;;;5.10;;
28335;SDS011;15592;53.656;7.276;2023-01-10T08:54:47;24.85;;;4.88;;
28335;SDS011;15592;53.656;7.276;2023-01-10T08:57:14;22.00;;;4.95;;
28335;SDS011;15592;53.656;7.276;2023-01-10T08:59:39;25.77;;;5.70;;
28335;SDS011;15592;53.656;7.276;2023-01-10T09:02:05;28.67;;;5.63;;
28335;SDS011;15592;53.656;7.276;2023-01-10T09:04:32;32.85;;;6.57;;
28335;SDS011;15592;53.656;7.276;2023-01-10T09:06:58;26.75;;;5.60;;
28335;SDS011;15592;53.656;7.276;2023-01-10T09:09:23;29.77;;;6.25;;
28335;SDS011;15592;53.656;7.276;2023-01-10T09:11:49;25.88;;;6.00;;
28335;SDS011;15592;53.656;7.276;2023-01-10T09:14:14;28.25;;;6.00;;
28335;SDS011;15592;53.656;7.276;2023-01-10T09:16:40;26.67;;;6.30;;
28335;SDS011;15592;53.656;7.276;2023-01-10T09:19:06;30.15;;;7.65;;
28335;SDS011;15592;53.656;7.276;2023-01-10T09:21:31;29.35;;;7.43;;
28335;SDS011;15592;53.656;7.276;2023-01-10T09:23:57;34.28;;;7.43;;
28335;SDS011;15592;53.656;7.276;2023-01-10T09:26:23;30.55;;;7.22;;
28335;SDS011;15592;53.656;7.276;2023-01-10T09:28:48;30.45;;;6.88;;
28335;SDS011;15592;53.656;7.276;2023-01-10T09:31:14;33.13;;;6.68;;
28335;SDS011;15592;53.656;7.276;2023-01-10T09:33:40;39.70;;;9.20;;
28335;SDS011;15592;53.656;7.276;2023-01-10T09:36:06;28.50;;;6.95;;
28335;SDS011;15592;53.656;7.276;2023-01-10T09:38:32;43.17;;;8.30;;
28335;SDS011;15592;53.656;7.276;2023-01-10T09:41:06;45.40;;;7.97;;
28335;SDS011;15592;53.656;7.276;2023-01-10T09:46:38;38.58;;;8.60;;
28335;SDS011;15592;53.656;7.276;2023-01-10T09:51:50;41.40;;;8.10;;
28335;SDS011;15592;53.656;7.276;2023-01-10T09:54:33;46.78;;;9.75;;
28335;SDS011;15592;53.656;7.276;2023-01-10T09:57:03;35.55;;;8.65;;
28335;SDS011;15592;53.656;7.276;2023-01-10T09:59:36;40.00;;;9.15;;
28335;SDS011;15592;53.656;7.276;2023-01-10T10:02:25;46.75;;;9.20;;
28335;SDS011;15592;53.656;7.276;2023-01-10T10:05:01;41.15;;;8.07;;
28335;SDS011;15592;53.656;7.276;2023-01-10T10:07:33;37.50;;;8.70;;
28335;SDS011;15592;53.656;7.276;2023-01-10T10:09:59;39.65;;;8.50;;
28335;SDS011;15592;53.656;7.276;2023-01-10T10:35:12;35.15;;;7.53;;
28335;SDS011;15592;53.656;7.276;2023-01-10T10:37:48;46.35;;;8.85;;
28335;SDS011;15592;53.656;7.276;2023-01-10T10:40:17;43.78;;;8.80;;
28335;SDS011;15592;53.656;7.276;2023-01-10T10:45:19;35.15;;;8.07;;
28335;SDS011;15592;53.656;7.276;2023-01-10T10:51:02;39.90;;;8.00;;
28335;SDS011;15592;53.656;7.276;2023-01-10T10:53:37;39.70;;;8.02;;
28335;SDS011;15592;53.656;7.276;2023-01-10T10:56:04;34.17;;;7.22;;
28335;SDS011;15592;53.656;7.276;2023-01-10T10:58:34;36.05;;;6.85;;
28335;SDS011;15592;53.656;7.276;2023-01-10T11:01:01;33.75;;;6.95;;
28335;SDS011;15592;53.656;7.276;2023-01-10T11:06:04;40.70;;;6.13;;
28335;SDS011;15592;53.656;7.276;2023-01-10T11:08:32;41.13;;;6.95;;
28335;SDS011;15592;53.656;7.276;2023-01-10T11:11:05;29.73;;;6.45;;
28335;SDS011;15592;53.656;7.276;2023-01-10T11:16:21;31.95;;;6.03;;
28335;SDS011;15592;53.656;7.276;2023-01-10T11:18:58;34.17;;;6.35;;
28335;SDS011;15592;53.656;7.276;2023-01-10T11:26:46;35.58;;;6.30;;
28335;SDS011;15592;53.656;7.276;2023-01-10T11:32:10;35.65;;;5.97;;
28335;SDS011;15592;53.656;7.276;2023-01-10T11:34:39;21.00;;;4.68;;
28335;SDS011;15592;53.656;7.276;2023-01-10T11:39:41;35.50;;;7.00;;
28335;SDS011;15592;53.656;7.276;2023-01-10T11:44:53;25.20;;;6.25;;
28335;SDS011;15592;53.656;7.276;2023-01-10T11:47:19;33.15;;;6.68;;
28335;SDS011;15592;53.656;7.276;2023-01-10T11:49:46;28.17;;;7.22;;
28335;SDS011;15592;53.656;7.276;2023-01-10T11:52:19;25.08;;;6.80;;
28335;SDS011;15592;53.656;7.276;2023-01-10T11:54:50;24.85;;;6.68;;
28335;SDS011;15592;53.656;7.276;2023-01-10T11:57:19;27.17;;;6.47;;
28335;SDS011;15592;53.656;7.276;2023-01-10T12:02:23;26.60;;;6.05;;
28335;SDS011;15592;53.656;7.276;2023-01-10T12:04:52;35.15;;;6.60;;
28335;SDS011;15592;53.656;7.276;2023-01-10T12:07:20;34.28;;;6.68;;
28335;SDS011;15592;53.656;7.276;2023-01-10T12:09:56;34.67;;;6.13;;
28335;SDS011;15592;53.656;7.276;2023-01-10T12:12:28;30.08;;;5.70;;
28335;SDS011;15592;53.656;7.276;2023-01-10T12:14:59;36.35;;;7.30;;
28335;SDS011;15592;53.656;7.276;2023-01-10T12:17:45;27.40;;;5.85;;
28335;SDS011;15592;53.656;7.276;2023-01-10T12:20:11;32.45;;;6.97;;
28335;SDS011;15592;53.656;7.276;2023-01-10T12:22:39;36.40;;;6.78;;
28335;SDS011;15592;53.656;7.276;2023-01-10T12:25:31;30.20;;;6.88;;
28335;SDS011;15592;53.656;7.276;2023-01-10T12:28:01;36.25;;;7.45;;
28335;SDS011;15592;53.656;7.276;2023-01-10T12:30:29;33.20;;;7.25;;
28335;SDS011;15592;53.656;7.276;2023-01-10T12:32:58;40.20;;;8.65;;
28335;SDS011;15592;53.656;7.276;2023-01-10T12:41:32;34.10;;;7.15;;
28335;SDS011;15592;53.656;7.276;2023-01-10T12:44:22;25.50;;;5.60;;
28335;SDS011;15592;53.656;7.276;2023-01-10T12:49:56;32.40;;;7.82;;
28335;SDS011;15592;53.656;7.276;2023-01-10T12:52:26;28.23;;;6.90;;
28335;SDS011;15592;53.656;7.276;2023-01-10T12:54:54;33.95;;;7.13;;
28335;SDS011;15592;53.656;7.276;2023-01-10T12:57:22;29.88;;;7.15;;
28335;SDS011;15592;53.656;7.276;2023-01-10T12:59:52;32.95;;;7.50;;
28335;SDS011;15592;53.656;7.276;2023-01-10T13:02:20;36.92;;;8.75;;
28335;SDS011;15592;53.656;7.276;2023-01-10T13:04:53;32.42;;;8.73;;
28335;SDS011;15592;53.656;7.276;2023-01-10T13:07:23;42.00;;;8.32;;
28335;SDS011;15592;53.656;7.276;2023-01-10T13:09:53;45.88;;;8.80;;
28335;SDS011;15592;53.656;7.276;2023-01-10T13:12:35;41.33;;;9.13;;
28335;SDS011;15592;53.656;7.276;2023-01-10T13:18:15;38.90;;;10.70;;
28335;SDS011;15592;53.656;7.276;2023-01-10T13:20:56;42.03;;;13.45;;
28335;SDS011;15592;53.656;7.276;2023-01-10T13:23:33;46.88;;;13.75;;
28335;SDS011;15592;53.656;7.276;2023-01-10T13:26:03;49.15;;;11.82;;
28335;SDS011;15592;53.656;7.276;2023-01-10T13:28:33;46.67;;;13.57;;
28335;SDS011;15592;53.656;7.276;2023-01-10T13:31:19;53.15;;;14.45;;
28335;SDS011;15592;53.656;7.276;2023-01-10T13:33:50;46.88;;;14.00;;
28335;SDS011;15592;53.656;7.276;2023-01-10T13:36:25;46.03;;;13.95;;
28335;SDS011;15592;53.656;7.276;2023-01-10T13:38:55;38.40;;;12.30;;
28335;SDS011;15592;53.656;7.276;2023-01-10T14:03:35;40.53;;;10.57;;
28335;SDS011;15592;53.656;7.276;2023-01-10T14:08:55;48.90;;;10.98;;
28335;SDS011;15592;53.656;7.276;2023-01-10T14:11:29;42.17;;;10.07;;
28335;SDS011;15592;53.656;7.276;2023-01-10T14:13:58;53.03;;;11.88;;
28335;SDS011;15592;53.656;7.276;2023-01-10T14:16:26;45.67;;;10.88;;
28335;SDS011;15592;53.656;7.276;2023-01-10T14:19:01;42.83;;;10.20;;
28335;SDS011;15592;53.656;7.276;2023-01-10T14:21:29;45.50;;;10.82;;
28335;SDS011;15592;53.656;7.276;2023-01-10T14:24:08;35.55;;;9.57;;
28335;SDS011;15592;53.656;7.276;2023-01-10T14:26:57;37.67;;;8.77;;
28335;SDS011;15592;53.656;7.276;2023-01-10T14:29:31;48.03;;;9.05;;
28335;SDS011;15592;53.656;7.276;2023-01-10T14:32:30;32.78;;;8.93;;
28335;SDS011;15592;53.656;7.276;2023-01-10T14:35:05;32.42;;;8.30;;
28335;SDS011;15592;53.656;7.276;2023-01-10T14:37:43;32.23;;;8.00;;
28335;SDS011;15592;53.656;7.276;2023-01-10T14:42:48;36.58;;;8.35;;
28335;SDS011;15592;53.656;7.276;2023-01-10T14:48:22;38.33;;;8.38;;
28335;SDS011;15592;53.656;7.276;2023-01-10T14:50:51;32.17;;;7.57;;
28335;SDS011;15592;53.656;7.276;2023-01-10T14:53:33;39.85;;;9.10;;
28335;SDS011;15592;53.656;7.276;2023-01-10T14:55:58;39.22;;;8.07;;
28335;SDS011;15592;53.656;7.276;2023-01-10T14:58:24;41.13;;;8.50;;
28335;SDS011;15592;53.656;7.276;2023-01-10T15:00:50;38.58;;;8.60;;
28335;SDS011;15592;53.656;7.276;2023-01-10T15:03:18;37.25;;;8.52;;
28335;SDS011;15592;53.656;7.276;2023-01-10T15:05:51;29.63;;;8.15;;
28335;SDS011;15592;53.656;7.276;2023-01-10T15:08:27;39.72;;;8.18;;
28335;SDS011;15592;53.656;7.276;2023-01-10T15:10:55;47.42;;;8.15;;
28335;SDS011;15592;53.656;7.276;2023-01-10T15:13:25;33.75;;;7.22;;
28335;SDS011;15592;53.656;7.276;2023-01-10T15:15:53;41.67;;;8.25;;
28335;SDS011;15592;53.656;7.276;2023-01-10T15:21:02;36.88;;;7.70;;
28335;SDS011;15592;53.656;7.276;2023-01-10T15:23:36;39.05;;;7.85;;
28335;SDS011;15592;53.656;7.276;2023-01-10T15:26:07;46.38;;;7.85;;
28335;SDS011;15592;53.656;7.276;2023-01-10T15:29:05;39.33;;;7.55;;
28335;SDS011;15592;53.656;7.276;2023-01-10T15:31:43;33.17;;;7.25;;
28335;SDS011;15592;53.656;7.276;2023-01-10T15:34:10;29.17;;;7.35;;
28335;SDS011;15592;53.656;7.276;2023-01-10T15:36:42;30.48;;;7.15;;
28335;SDS011;15592;53.656;7.276;2023-01-10T15:39:53;36.25;;;7.22;;
28335;SDS011;15592;53.656;7.276;2023-01-10T15:42:05;37.38;;;6.80;;
28335;SDS011;15592;53.656;7.276;2023-01-10T15:44:40;37.88;;;7.93;;
28335;SDS011;15592;53.656;7.276;2023-01-10T15:50:28;41.05;;;7.38;;
28335;SDS011;15592;53.656;7.276;2023-01-10T15:53:05;33.42;;;5.65;;
28335;SDS011;15592;53.656;7.276;2023-01-10T15:55:38;32.80;;;6.10;;
28335;SDS011;15592;53.656;7.276;2023-01-10T16:00:41;31.08;;;6.50;;
28335;SDS011;15592;53.656;7.276;2023-01-10T16:03:20;44.83;;;7.38;;
28335;SDS011;15592;53.656;7.276;2023-01-10T16:05:49;40.20;;;6.55;;
28335;SDS011;15592;53.656;7.276;2023-01-10T16:08:21;30.88;;;5.72;;
28335;SDS011;15592;53.656;7.276;2023-01-10T16:10:59;39.08;;;5.88;;
28335;SDS011;15592;53.656;7.276;2023-01-10T16:13:29;30.63;;;6.72;;
28335;SDS011;15592;53.656;7.276;2023-01-10T16:16:00;30.23;;;6.03;;
28335;SDS011;15592;53.656;7.276;2023-01-10T16:18:29;42.25;;;6.10;;
28335;SDS011;15592;53.656;7.276;2023-01-10T16:20:55;41.50;;;6.53;;
28335;SDS011;15592;53.656;7.276;2023-01-10T16:23:33;38.67;;;5.93;;
28335;SDS011;15592;53.656;7.276;2023-01-10T16:26:02;31.83;;;6.90;;
28335;SDS011;15592;53.656;7.276;2023-01-10T16:28:31;24.98;;;4.95;;
28335;SDS011;15592;53.656;7.276;2023-01-10T16:31:00;30.27;;;5.07;;
28335;SDS011;15592;53.656;7.276;2023-01-10T16:33:27;33.45;;;6.80;;
28335;SDS011;15592;53.656;7.276;2023-01-10T16:35:57;31.60;;;5.68;;
28335;SDS011;15592;53.656;7.276;2023-01-10T16:38:24;31.17;;;6.18;;
28335;SDS011;15592;53.656;7.276;2023-01-10T16:41:01;36.38;;;6.07;;
28335;SDS011;15592;53.656;7.276;2023-01-10T16:43:46;37.40;;;6.85;;
28335;SDS011;15592;53.656;7.276;2023-01-10T16:46:13;34.55;;;5.72;;
28335;SDS011;15592;53.656;7.276;2023-01-10T16:48:38;31.75;;;6.18;;
28335;SDS011;15592;53.656;7.276;2023-01-10T16:51:26;33.90;;;6.07;;
28335;SDS011;15592;53.656;7.276;2023-01-10T16:53:56;40.70;;;6.78;;
28335;SDS011;15592;53.656;7.276;2023-01-10T16:56:23;33.65;;;7.22;;
28335;SDS011;15592;53.656;7.276;2023-01-10T16:58:50;31.58;;;6.57;;
28335;SDS011;15592;53.656;7.276;2023-01-10T17:01:24;36.30;;;7.43;;
28335;SDS011;15592;53.656;7.276;2023-01-10T17:03:56;33.65;;;7.60;;
28335;SDS011;15592;53.656;7.276;2023-01-10T17:06:23;46.05;;;7.90;;
28335;SDS011;15592;53.656;7.276;2023-01-10T17:08:48;27.00;;;5.47;;
28335;SDS011;15592;53.656;7.276;2023-01-10T17:11:18;40.80;;;6.38;;
28335;SDS011;15592;53.656;7.276;2023-01-10T17:13:57;49.03;;;6.63;;
28335;SDS011;15592;53.656;7.276;2023-01-10T17:16:23;27.77;;;4.97;;
28335;SDS011;15592;53.656;7.276;2023-01-10T17:18:49;36.50;;;7.25;;